Terminal Aerodrome Forecast
Issued by NWS

Home | Current Version | Previous Version | Text Only | Print | Product List | Glossary On
Versions: 1 2 3 4 5 6 7 8 9 10 11 12 13 14 15 16 17 18 19
657
FTUS44 KLIX 231427 AAB
TAFMCB
TAF AMD
KMCB 231427Z 2314/2412 33012KT P6SM BKN013 OVC040
     FM231600 34012KT P6SM BKN040
     FM240000 34010KT P6SM SCT080
     FM240300 33005KT P6SM SCT150=

USA.gov is the U.S. government's official web portal to all federal, state and local government web resources and services.